Terminal Aerodrome Forecast
Issued by NWS

Current Version | Previous Version | Graphics & Text | Print | Product List | Glossary On
Versions: 1 2 3 4 5 6 7 8 9 10 11 12 13 14 15 16 17 18 19 20 21 22 23 24 25 26 27 28 29 30
736
FTUS41 KRNK 222326
TAFLWB
TAF
KLWB 222326Z 2300/2324 00000KT P6SM SCT250
     FM231100 VRB03KT 5SM BR SCT200
     FM231300 VRB03KT P6SM SCT200
     FM231800 33005KT P6SM SCT250=

USA.gov is the U.S. government's official web portal to all federal, state and local government web resources and services.